Time,TemperatureF,DewpointF,PressureIn,WindDirection,WindDirectionDegrees,WindSpeedMPH,WindSpeedGustMPH,Humidity,HourlyPrecipIn,Conditions,Clouds,dailyrainin,SoftwareType,DateUTC
2013-05-08 00:00:00,62.8,40.5,29.88,North,0,0.0,0.0,44,0.00,CLR,,0.00,WeatherDisplay:10.37,2013-05-08 05:00:00,
2013-05-08 00:10:00,62.4,40.8,29.88,North,0,0.0,0.0,45,0.00,CLR,,0.00,WeatherDisplay:10.37,2013-05-08 05:10:00,
2013-05-08 00:20:00,62.1,40.5,29.88,North,0,0.0,0.0,45,0.00,CLR,,0.00,WeatherDisplay:10.37,2013-05-08 05:20:00,
2013-05-08 00:30:00,61.7,40.7,29.88,North,0,0.0,0.0,46,0.00,CLR,,0.00,WeatherDisplay:10.37,2013-05-08 05:30:00,
2013-05-08 00:40:00,61.5,40.5,29.88,North,0,0.0,0.0,46,0.00,CLR,,0.00,WeatherDisplay:10.37,2013-05-08 05:40:00,
2013-05-08 00:50:00,61.3,40.9,29.88,North,0,0.0,0.0,47,0.00,CLR,,0.00,WeatherDisplay:10.37,2013-05-08 05:50:00,
2013-05-08 01:00:00,61.3,40.9,29.88,North,0,0.0,0.0,47,0.00,CLR,,0.00,WeatherDisplay:10.37,2013-05-08 06:00:00,
2013-05-08 01:10:00,61.0,41.1,29.88,North,0,0.0,0.0,48,0.00,CLR,,0.00,WeatherDisplay:10.37,2013-05-08 06:10:00,
2013-05-08 01:20:00,61.0,41.7,29.88,North,0,0.0,0.0,49,0.00,CLR,,0.00,WeatherDisplay:10.37,2013-05-08 06:20:00,
2013-05-08 01:30:00,61.0,41.7,29.88,North,0,0.0,0.0,49,0.00,CLR,,0.00,WeatherDisplay:10.37,2013-05-08 06:30:00,
2013-05-08 01:40:00,61.0,41.7,29.88,North,0,0.0,0.0,49,0.00,CLR,,0.00,WeatherDisplay:10.37,2013-05-08 06:40:00,
2013-05-08 01:50:00,61.3,42.0,29.88,North,0,0.0,0.0,49,0.00,CLR,,0.00,WeatherDisplay:10.37,2013-05-08 06:50:00,
2013-05-08 02:00:00,61.5,42.2,29.88,North,0,0.0,0.0,49,0.00,CLR,,0.00,WeatherDisplay:10.37,2013-05-08 07:00:00,
2013-05-08 02:10:00,61.7,42.3,29.88,North,0,0.0,0.0,49,0.00,CLR,,0.00,WeatherDisplay:10.37,2013-05-08 07:10:00,
2013-05-08 02:20:00,61.9,42.5,29.85,North,0,0.0,0.0,49,0.00,CLR,,0.00,WeatherDisplay:10.37,2013-05-08 07:20:00,
2013-05-08 02:30:00,61.9,42.5,29.85,North,0,0.0,0.0,49,0.00,CLR,,0.00,WeatherDisplay:10.37,2013-05-08 07:30:00,
2013-05-08 02:40:00,61.9,43.0,29.85,North,0,0.0,0.0,50,0.00,CLR,,0.00,WeatherDisplay:10.37,2013-05-08 07:40:00,
2013-05-08 02:50:00,61.9,43.0,29.85,North,0,0.0,0.0,50,0.00,CLR,,0.00,WeatherDisplay:10.37,2013-05-08 07:50:00,
2013-05-08 03:00:00,61.7,43.4,29.88,North,0,0.0,0.0,51,0.00,CLR,,0.00,WeatherDisplay:10.37,2013-05-08 08:00:00,
2013-05-08 03:10:00,61.9,44.1,29.88,North,0,0.0,0.0,52,0.00,CLR,,0.00,WeatherDisplay:10.37,2013-05-08 08:10:00,
2013-05-08 03:20:00,61.9,44.1,29.88,North,0,0.0,0.0,52,0.00,CLR,,0.00,WeatherDisplay:10.37,2013-05-08 08:20:00,
2013-05-08 03:30:00,61.9,44.1,29.88,North,0,0.0,0.0,52,0.00,CLR,,0.00,WeatherDisplay:10.37,2013-05-08 08:30:00,
2013-05-08 03:40:00,61.7,43.9,29.88,North,0,0.0,0.0,52,0.00,CLR,,0.00,WeatherDisplay:10.37,2013-05-08 08:40:00,
2013-05-08 03:50:00,61.3,44.1,29.88,North,0,0.0,0.0,53,0.00,CLR,,0.00,WeatherDisplay:10.37,2013-05-08 08:50:00,
2013-05-08 04:00:00,61.0,44.2,29.88,North,0,0.0,0.0,54,0.00,CLR,,0.00,WeatherDisplay:10.37,2013-05-08 09:00:00,
2013-05-08 04:10:00,60.6,44.4,29.88,North,0,0.0,0.0,55,0.00,CLR,,0.00,WeatherDisplay:10.37,2013-05-08 09:10:00,
2013-05-08 04:20:00,60.4,44.2,29.88,North,0,0.0,0.0,55,0.00,CLR,,0.00,WeatherDisplay:10.37,2013-05-08 09:20:00,
2013-05-08 04:30:00,60.3,44.0,29.88,North,0,0.0,0.0,55,0.00,CLR,,0.00,WeatherDisplay:10.37,2013-05-08 09:30:00,
2013-05-08 04:40:00,60.1,44.3,29.88,North,0,0.0,0.0,56,0.00,CLR,,0.00,WeatherDisplay:10.37,2013-05-08 09:40:00,
2013-05-08 04:50:00,59.5,44.3,29.88,North,0,0.0,0.0,57,0.00,CLR,,0.00,WeatherDisplay:10.37,2013-05-08 09:50:00,
2013-05-08 05:00:00,59.2,44.4,29.88,North,0,0.0,0.0,58,0.00,CLR,,0.00,WeatherDisplay:10.37,2013-05-08 10:00:00,
2013-05-08 05:10:00,59.0,44.7,29.88,North,0,0.0,0.0,59,0.00,CLR,,0.00,WeatherDisplay:10.37,2013-05-08 10:10:00,
2013-05-08 05:20:00,58.8,45.0,29.88,North,0,0.0,0.0,60,0.00,CLR,,0.00,WeatherDisplay:10.37,2013-05-08 10:20:00,
2013-05-08 05:30:00,58.6,45.2,29.88,North,0,0.0,0.0,61,0.00,CLR,,0.00,WeatherDisplay:10.37,2013-05-08 10:30:00,
2013-05-08 05:40:00,58.6,45.2,29.88,North,0,0.0,0.0,61,0.00,CLR,,0.00,WeatherDisplay:10.37,2013-05-08 10:40:00,
2013-05-08 05:50:00,58.8,45.8,29.88,North,0,0.0,0.0,62,0.00,CLR,,0.00,WeatherDisplay:10.37,2013-05-08 10:50:00,
2013-05-08 06:00:00,58.6,45.7,29.88,North,0,0.0,0.0,62,0.00,CLR,,0.00,WeatherDisplay:10.37,2013-05-08 11:00:00,
2013-05-08 06:10:00,58.5,45.5,29.88,North,0,0.0,0.0,62,0.00,CLR,,0.00,WeatherDisplay:10.37,2013-05-08 11:10:00,
2013-05-08 06:20:00,58.3,45.7,29.88,North,0,0.0,0.0,63,0.00,CLR,,0.00,WeatherDisplay:10.37,2013-05-08 11:20:00,
2013-05-08 06:30:00,58.3,45.7,29.88,North,0,0.0,0.0,63,0.00,CLR,,0.00,WeatherDisplay:10.37,2013-05-08 11:30:00,
2013-05-08 06:40:00,58.5,46.3,29.88,North,0,0.0,0.0,64,0.00,CLR,,0.00,WeatherDisplay:10.37,2013-05-08 11:40:00,
2013-05-08 06:50:00,58.6,46.5,29.88,North,0,0.0,0.0,64,0.00,CLR,,0.00,WeatherDisplay:10.37,2013-05-08 11:50:00,
2013-05-08 07:00:00,58.8,46.7,29.88,North,0,0.0,0.0,64,0.00,CLR,,0.00,WeatherDisplay:10.37,2013-05-08 12:00:00,
2013-05-08 07:10:00,59.1,46.9,29.88,North,0,0.0,0.0,64,0.00,CLR,,0.00,WeatherDisplay:10.37,2013-05-08 12:10:00,
2013-05-08 07:20:00,59.7,47.5,29.88,North,0,0.0,0.0,64,0.00,CLR,,0.00,WeatherDisplay:10.37,2013-05-08 12:20:00,
2013-05-08 07:30:00,60.6,47.9,29.88,North,0,0.0,0.0,63,0.00,CLR,,0.00,WeatherDisplay:10.37,2013-05-08 12:30:00,
2013-05-08 07:40:00,61.5,48.4,29.88,North,0,0.0,0.0,62,0.00,CLR,,0.00,WeatherDisplay:10.37,2013-05-08 12:40:00,
2013-05-08 07:50:00,62.5,48.0,29.91,North,0,0.0,0.0,59,0.00,CLR,,0.00,WeatherDisplay:10.37,2013-05-08 12:50:00,
2013-05-08 08:00:00,63.3,47.8,29.91,North,0,0.0,0.0,57,0.00,CLR,,0.00,WeatherDisplay:10.37,2013-05-08 13:00:00,
2013-05-08 08:10:00,63.9,46.9,29.91,North,0,0.0,0.0,54,0.00,CLR,,0.00,WeatherDisplay:10.37,2013-05-08 13:10:00,
2013-05-08 08:20:00,64.6,45.5,29.91,North,0,0.0,0.0,50,0.00,CLR,,0.00,WeatherDisplay:10.37,2013-05-08 13:20:00,
2013-05-08 08:30:00,65.3,45.1,29.91,North,0,0.0,0.0,48,0.00,CLR,,0.00,WeatherDisplay:10.37,2013-05-08 13:30:00,
2013-05-08 08:40:00,66.1,45.3,29.91,North,0,0.0,0.0,47,0.00,CLR,,0.00,WeatherDisplay:10.37,2013-05-08 13:40:00,
2013-05-08 08:50:00,66.6,45.1,29.91,North,0,0.0,0.0,46,0.00,CLR,,0.00,WeatherDisplay:10.37,2013-05-08 13:50:00,
2013-05-08 09:00:00,67.1,44.4,29.91,North,0,0.0,0.0,44,0.00,CLR,,0.00,WeatherDisplay:10.37,2013-05-08 14:00:00,
2013-05-08 09:10:00,68.0,43.4,29.91,North,0,0.0,0.0,41,0.00,CLR,,0.00,WeatherDisplay:10.37,2013-05-08 14:10:00,
2013-05-08 09:20:00,68.0,43.4,29.91,North,0,0.0,0.0,41,0.00,CLR,,0.00,WeatherDisplay:10.37,2013-05-08 14:20:00,
2013-05-08 09:30:00,68.4,42.4,29.91,North,0,0.0,0.0,39,0.00,CLR,,0.00,WeatherDisplay:10.37,2013-05-08 14:30:00,
2013-05-08 09:40:00,69.2,42.5,29.91,North,0,0.0,0.0,38,0.00,CLR,,0.00,WeatherDisplay:10.37,2013-05-08 14:40:00,
2013-05-08 09:50:00,70.2,41.9,29.91,North,0,0.0,0.0,36,0.00,CLR,,0.00,WeatherDisplay:10.37,2013-05-08 14:50:00,
2013-05-08 10:00:00,70.2,41.9,29.91,North,0,0.0,0.0,36,0.00,CLR,,0.00,WeatherDisplay:10.37,2013-05-08 15:00:00,
2013-05-08 10:10:00,70.3,42.1,29.91,North,0,0.0,0.0,36,0.00,CLR,,0.00,WeatherDisplay:10.37,2013-05-08 15:10:00,
2013-05-08 10:20:00,70.9,41.8,29.91,North,0,0.0,0.0,35,0.00,CLR,,0.00,WeatherDisplay:10.37,2013-05-08 15:20:00,
2013-05-08 10:30:00,71.1,42.0,29.91,North,0,0.0,0.0,35,0.00,CLR,,0.00,WeatherDisplay:10.37,2013-05-08 15:30:00,
2013-05-08 10:40:00,71.2,42.9,29.91,North,0,0.0,0.0,36,0.00,CLR,,0.00,WeatherDisplay:10.37,2013-05-08 15:40:00,
2013-05-08 10:50:00,71.4,42.3,29.91,North,0,0.0,0.0,35,0.00,CLR,,0.00,WeatherDisplay:10.37,2013-05-08 15:50:00,
2013-05-08 11:00:00,71.4,43.1,29.91,North,0,0.0,0.0,36,0.00,CLR,,0.00,WeatherDisplay:10.37,2013-05-08 16:00:00,
2013-05-08 11:10:00,71.4,42.3,29.91,North,0,0.0,0.0,35,0.00,CLR,,0.00,WeatherDisplay:10.37,2013-05-08 16:10:00,
2013-05-08 11:20:00,71.6,42.5,29.91,North,0,0.0,0.0,35,0.00,CLR,,0.00,WeatherDisplay:10.37,2013-05-08 16:20:00,
2013-05-08 11:30:00,72.0,42.8,29.91,North,0,0.0,0.0,35,0.00,CLR,,0.00,WeatherDisplay:10.37,2013-05-08 16:30:00,
2013-05-08 11:40:00,72.6,42.6,29.91,North,0,0.0,0.0,34,0.00,CLR,,0.00,WeatherDisplay:10.37,2013-05-08 16:40:00,
2013-05-08 11:50:00,72.9,42.1,29.91,North,0,0.0,0.0,33,0.00,CLR,,0.00,WeatherDisplay:10.37,2013-05-08 16:50:00,
2013-05-08 12:00:00,73.7,42.8,29.91,North,0,0.0,0.0,33,0.00,CLR,,0.00,WeatherDisplay:10.37,2013-05-08 17:00:00,
2013-05-08 12:10:00,74.8,43.0,29.91,North,0,0.0,0.0,32,0.00,CLR,,0.00,WeatherDisplay:10.37,2013-05-08 17:10:00,
2013-05-08 12:20:00,75.0,43.1,29.88,North,0,0.0,0.0,32,0.00,CLR,,0.00,WeatherDisplay:10.37,2013-05-08 17:20:00,
2013-05-08 12:30:00,75.2,42.5,29.88,North,0,0.0,0.0,31,0.00,CLR,,0.00,WeatherDisplay:10.37,2013-05-08 17:30:00,
2013-05-08 12:40:00,75.6,42.8,29.88,North,0,0.0,0.0,31,0.00,CLR,,0.00,WeatherDisplay:10.37,2013-05-08 17:40:00,
2013-05-08 12:50:00,76.2,43.3,29.88,North,0,0.0,0.0,31,0.00,CLR,,0.00,WeatherDisplay:10.37,2013-05-08 17:50:00,
2013-05-08 13:00:00,76.8,43.0,29.88,North,0,0.0,0.0,30,0.00,CLR,,0.00,WeatherDisplay:10.37,2013-05-08 18:00:00,
2013-05-08 13:10:00,76.5,42.7,29.88,North,0,0.0,0.0,30,0.00,CLR,,0.00,WeatherDisplay:10.37,2013-05-08 18:10:00,
2013-05-08 13:20:00,76.6,42.9,29.88,North,0,0.0,0.0,30,0.00,CLR,,0.00,WeatherDisplay:10.37,2013-05-08 18:20:00,
2013-05-08 13:30:00,76.8,41.2,29.88,North,0,0.0,0.0,28,0.00,CLR,,0.00,WeatherDisplay:10.37,2013-05-08 18:30:00,
2013-05-08 13:40:00,77.5,39.9,29.88,North,0,0.0,0.0,26,0.00,CLR,,0.00,WeatherDisplay:10.37,2013-05-08 18:40:00,
2013-05-08 13:50:00,77.7,41.0,29.88,North,0,0.0,0.0,27,0.00,CLR,,0.00,WeatherDisplay:10.37,2013-05-08 18:50:00,
2013-05-08 14:00:00,78.4,40.7,29.88,North,0,0.0,0.0,26,0.00,CLR,,0.00,WeatherDisplay:10.37,2013-05-08 19:00:00,
2013-05-08 14:10:00,78.6,40.9,29.88,North,0,0.0,0.0,26,0.00,CLR,,0.00,WeatherDisplay:10.37,2013-05-08 19:10:00,
2013-05-08 14:20:00,78.3,40.5,29.85,North,0,0.0,0.0,26,0.00,CLR,,0.00,WeatherDisplay:10.37,2013-05-08 19:20:00,
2013-05-08 14:30:00,77.4,40.8,29.85,North,0,0.0,0.0,27,0.00,CLR,,0.00,WeatherDisplay:10.37,2013-05-08 19:30:00,
2013-05-08 14:40:00,76.6,40.1,29.85,North,0,0.0,0.0,27,0.00,CLR,,0.00,WeatherDisplay:10.37,2013-05-08 19:40:00,
2013-05-08 14:50:00,76.1,40.6,29.85,North,0,0.0,0.0,28,0.00,CLR,,0.00,WeatherDisplay:10.37,2013-05-08 19:50:00,
2013-05-08 15:00:00,76.6,41.1,29.85,North,0,0.0,0.0,28,0.00,CLR,,0.00,WeatherDisplay:10.37,2013-05-08 20:00:00,
2013-05-08 15:10:00,76.5,40.0,29.85,North,0,0.0,0.0,27,0.00,CLR,,0.00,WeatherDisplay:10.37,2013-05-08 20:10:00,
2013-05-08 15:20:00,75.7,40.3,29.85,North,0,0.0,0.0,28,0.00,CLR,,0.00,WeatherDisplay:10.37,2013-05-08 20:20:00,
2013-05-08 15:30:00,74.4,42.6,29.85,North,0,0.0,0.0,32,0.00,CLR,,0.00,WeatherDisplay:10.37,2013-05-08 20:30:00,
2013-05-08 15:40:00,70.9,46.0,29.85,North,0,0.0,0.0,41,0.00,CLR,,0.00,WeatherDisplay:10.37,2013-05-08 20:40:00,
2013-05-08 15:50:00,67.8,52.4,29.88,North,0,0.0,0.0,58,0.00,CLR,,0.00,WeatherDisplay:10.37,2013-05-08 20:50:00,
2013-05-08 16:00:00,65.1,55.9,29.88,North,0,0.0,0.0,72,0.00,CLR,,0.00,WeatherDisplay:10.37,2013-05-08 21:00:00,
2013-05-08 16:10:00,64.2,55.0,29.88,North,0,0.0,0.0,72,0.00,CLR,,0.00,WeatherDisplay:10.37,2013-05-08 21:10:00,
2013-05-08 16:20:00,64.2,55.0,29.88,North,0,0.0,0.0,72,0.04,RA,,0.04,WeatherDisplay:10.37,2013-05-08 21:20:00,
2013-05-08 16:30:00,64.2,53.4,29.85,North,0,0.0,0.0,68,0.00,CLR,,0.04,WeatherDisplay:10.37,2013-05-08 21:30:00,
2013-05-08 16:40:00,64.9,52.9,29.85,North,0,0.0,0.0,65,0.00,CLR,,0.04,WeatherDisplay:10.37,2013-05-08 21:40:00,
2013-05-08 16:50:00,65.5,52.1,29.85,North,0,0.0,0.0,62,0.00,CLR,,0.04,WeatherDisplay:10.37,2013-05-08 21:50:00,
2013-05-08 17:00:00,66.4,52.1,29.85,North,0,0.0,0.0,60,0.00,CLR,,0.04,WeatherDisplay:10.37,2013-05-08 22:00:00,
2013-05-08 17:10:00,67.5,50.7,29.85,North,0,0.0,0.0,55,0.00,CLR,,0.04,WeatherDisplay:10.37,2013-05-08 22:10:00,
2013-05-08 17:20:00,68.4,48.5,29.85,North,0,0.0,0.0,49,0.00,CLR,,0.04,WeatherDisplay:10.37,2013-05-08 22:20:00,
2013-05-08 17:30:00,68.9,48.4,29.85,North,0,0.0,0.0,48,0.00,CLR,,0.04,WeatherDisplay:10.37,2013-05-08 22:30:00,
2013-05-08 17:40:00,68.9,47.8,29.85,North,0,0.0,0.0,47,0.00,CLR,,0.04,WeatherDisplay:10.37,2013-05-08 22:40:00,
2013-05-08 17:50:00,68.1,47.6,29.85,North,0,0.0,0.0,48,0.00,CLR,,0.04,WeatherDisplay:10.37,2013-05-08 22:50:00,
2013-05-08 18:00:00,67.4,48.1,29.85,North,0,0.0,0.0,50,0.00,CLR,,0.04,WeatherDisplay:10.37,2013-05-08 23:00:00,
2013-05-08 18:10:00,66.7,49.6,29.85,North,0,0.0,0.0,54,0.00,CLR,,0.04,WeatherDisplay:10.37,2013-05-08 23:10:00,
2013-05-08 18:20:00,66.4,49.8,29.85,North,0,0.0,0.0,55,0.00,CLR,,0.04,WeatherDisplay:10.37,2013-05-08 23:20:00,
2013-05-08 18:30:00,66.2,50.0,29.85,North,0,0.0,0.0,56,0.00,CLR,,0.04,WeatherDisplay:10.37,2013-05-08 23:30:00,
2013-05-08 18:40:00,66.0,49.9,29.85,North,0,0.0,0.0,56,0.00,CLR,,0.04,WeatherDisplay:10.37,2013-05-08 23:40:00,
2013-05-08 18:50:00,65.8,50.2,29.85,North,0,0.0,0.0,57,0.00,CLR,,0.04,WeatherDisplay:10.37,2013-05-08 23:50:00,
2013-05-08 19:00:00,65.5,50.3,29.85,North,0,0.0,0.0,58,0.00,CLR,,0.04,WeatherDisplay:10.37,2013-05-09 00:00:00,
2013-05-08 19:10:00,65.3,50.6,29.85,North,0,0.0,0.0,59,0.00,CLR,,0.04,WeatherDisplay:10.37,2013-05-09 00:10:00,
2013-05-08 19:20:00,65.4,50.3,29.88,North,0,0.0,0.0,58,0.00,CLR,,0.04,WeatherDisplay:10.37,2013-05-09 00:20:00,
2013-05-08 19:30:00,65.5,50.3,29.88,North,0,0.0,0.0,58,0.00,CLR,,0.04,WeatherDisplay:10.37,2013-05-09 00:30:00,
2013-05-08 19:40:00,65.5,49.4,29.88,North,0,0.0,0.0,56,0.00,CLR,,0.04,WeatherDisplay:10.37,2013-05-09 00:40:00,
2013-05-08 19:50:00,65.1,50.4,29.91,North,0,0.0,0.0,59,0.00,CLR,,0.04,WeatherDisplay:10.37,2013-05-09 00:50:00,
2013-05-08 20:00:00,63.8,52.7,29.88,North,0,0.0,0.0,67,0.00,CLR,,0.04,WeatherDisplay:10.37,2013-05-09 01:00:00,
2013-05-08 20:10:00,62.6,53.8,29.88,North,0,0.0,0.0,73,0.04,RA,,0.09,WeatherDisplay:10.37,2013-05-09 01:10:00,
2013-05-08 20:20:00,61.7,54.4,29.88,North,0,0.0,0.0,77,0.00,CLR,,0.09,WeatherDisplay:10.37,2013-05-09 01:20:00,
2013-05-08 20:30:00,61.5,54.9,29.91,North,0,0.0,0.0,79,0.00,CLR,,0.09,WeatherDisplay:10.37,2013-05-09 01:30:00,
2013-05-08 20:40:00,61.2,55.3,29.91,North,0,0.0,0.0,81,0.00,CLR,,0.09,WeatherDisplay:10.37,2013-05-09 01:40:00,
2013-05-08 20:50:00,61.0,55.4,29.88,North,0,0.0,0.0,82,0.00,CLR,,0.09,WeatherDisplay:10.37,2013-05-09 01:50:00,
2013-05-08 21:00:00,60.8,55.9,29.88,North,0,0.0,0.0,84,0.00,CLR,,0.09,WeatherDisplay:10.37,2013-05-09 02:00:00,
2013-05-08 21:10:00,60.8,56.3,29.88,North,0,0.0,0.0,85,0.00,CLR,,0.09,WeatherDisplay:10.37,2013-05-09 02:10:00,
2013-05-08 21:20:00,60.6,56.4,29.91,North,0,0.0,0.0,86,0.00,CLR,,0.09,WeatherDisplay:10.37,2013-05-09 02:20:00,
2013-05-08 21:30:00,60.6,56.7,29.91,North,0,0.0,0.0,87,0.00,CLR,,0.09,WeatherDisplay:10.37,2013-05-09 02:30:00,
2013-05-08 21:40:00,60.6,56.7,29.91,North,0,0.0,0.0,87,0.00,CLR,,0.09,WeatherDisplay:10.37,2013-05-09 02:40:00,
2013-05-08 21:50:00,60.6,56.4,29.91,North,0,0.0,0.0,86,0.00,CLR,,0.09,WeatherDisplay:10.37,2013-05-09 02:50:00,
2013-05-08 22:00:00,60.6,56.1,29.91,North,0,0.0,0.0,85,0.00,CLR,,0.09,WeatherDisplay:10.37,2013-05-09 03:00:00,
2013-05-08 22:10:00,60.4,55.6,29.91,North,0,0.0,0.0,84,0.00,CLR,,0.09,WeatherDisplay:10.37,2013-05-09 03:10:00,
2013-05-08 22:20:00,60.4,55.6,29.91,North,0,0.0,0.0,84,0.00,CLR,,0.09,WeatherDisplay:10.37,2013-05-09 03:20:00,
2013-05-08 22:30:00,60.3,55.4,29.91,North,0,0.0,0.0,84,0.00,CLR,,0.09,WeatherDisplay:10.37,2013-05-09 03:30:00,
2013-05-08 22:40:00,60.1,55.6,29.91,North,0,0.0,0.0,85,0.00,CLR,,0.09,WeatherDisplay:10.37,2013-05-09 03:40:00,
2013-05-08 22:50:00,59.7,55.5,29.91,North,0,0.0,0.0,86,0.00,CLR,,0.09,WeatherDisplay:10.37,2013-05-09 03:50:00,
2013-05-08 23:00:00,59.5,55.7,29.91,North,0,0.0,0.0,87,0.00,CLR,,0.09,WeatherDisplay:10.37,2013-05-09 04:00:00,
2013-05-08 23:10:00,59.4,55.5,29.91,North,0,0.0,0.0,87,0.00,CLR,,0.09,WeatherDisplay:10.37,2013-05-09 04:10:00,
2013-05-08 23:20:00,59.2,55.6,29.91,North,0,0.0,0.0,88,0.00,CLR,,0.09,WeatherDisplay:10.37,2013-05-09 04:20:00,
2013-05-08 23:30:00,59.0,55.4,29.91,North,0,0.0,0.0,88,0.00,CLR,,0.09,WeatherDisplay:10.37,2013-05-09 04:30:00,
2013-05-08 23:40:00,59.0,55.8,29.91,North,0,0.0,0.0,89,0.00,CLR,,0.09,WeatherDisplay:10.37,2013-05-09 04:40:00,
2013-05-08 23:50:00,58.8,55.6,29.91,North,0,0.0,0.0,89,0.00,CLR,,0.09,WeatherDisplay:10.37,2013-05-09 04:50:00,